SAOU/LUQ METAR and TAF weather

Enter ICAO airport designator
Station Type Date Time Source
SAOU METAR 2022/11/20 23:50 UTC NOAA

SAOU 202350Z 09017G32KT 9999 -DZ SCT035 SCT050 BKN200 17/11 Q1017


Station Type Date Time Source
SAOU Decoded METAR 2022/11/20 23:50 UTC NOAA

San Luis Aerodrome, Argentina (SAOU) 33-16S 066-21W 713M
Nov 20, 2022 - 06:50 PM EST / 2022.11.20 2350 UTC
Wind: from the E (090 degrees) at 20 MPH (17 KT) gusting to 37 MPH (32 KT):0
Visibility: greater than 7 mile(s):0
Sky conditions: mostly cloudy
Weather: light drizzle
Temperature: 62 F (17 C)
Dew Point: 51 F (11 C)
Relative Humidity: 67%
Pressure (altimeter): 30.03 in. Hg (1017 hPa)
ob: SAOU 202350Z 09017G32KT 9999 -DZ SCT035 SCT050 BKN200 17/11 Q1017
cycle: 0

Station Type Date Time Source
SAOU TAF 2022/09/26 06:12 UTC NOAA

TAF SAOU 260500Z 2606/2706 04005KT CAVOK TX25/2619Z TN08/2610Z
BECMG 2613/2615 VRB03KT
BECMG 2623/2701 09010KT 9999 SCT040

Example: see airport list